createdAt,value
2018-12-29T00:00:53.763Z,1026.96
2018-12-29T00:01:53.954Z,1026.94
2018-12-29T00:02:53.738Z,1026.88
2018-12-29T00:03:53.713Z,1026.87
2018-12-29T00:04:53.708Z,1026.88
2018-12-29T00:05:53.707Z,1026.88
2018-12-29T00:06:53.707Z,1026.89
2018-12-29T00:07:53.713Z,1026.92
2018-12-29T00:08:53.680Z,1026.91
2018-12-29T00:09:53.677Z,1026.91
2018-12-29T00:10:53.677Z,1026.93
2018-12-29T00:11:53.652Z,1026.97
2018-12-29T00:12:53.647Z,1027.01
2018-12-29T00:13:53.662Z,1027.02
2018-12-29T00:14:55.159Z,1026.97
2018-12-29T00:15:53.642Z,1026.94
2018-12-29T00:16:53.634Z,1026.99
2018-12-29T00:17:53.655Z,1027.07
2018-12-29T00:18:53.622Z,1027.11
2018-12-29T00:19:53.603Z,1027.08
2018-12-29T00:20:53.620Z,1027.10
2018-12-29T00:21:53.589Z,1027.11
2018-12-29T00:22:53.582Z,1027.12
2018-12-29T00:23:53.581Z,1027.06
2018-12-29T00:24:53.560Z,1027.08
2018-12-29T00:25:53.563Z,1027.06
2018-12-29T00:26:53.553Z,1027.09
2018-12-29T00:27:53.541Z,1027.06
2018-12-29T00:28:53.543Z,1027.07
2018-12-29T00:29:53.543Z,1027.06
2018-12-29T00:30:53.528Z,1027.04
2018-12-29T00:31:53.509Z,1027.08
2018-12-29T00:32:53.506Z,1027.10
2018-12-29T00:33:53.510Z,1027.08
2018-12-29T00:34:53.502Z,1027.05
2018-12-29T00:35:53.483Z,1027.05
2018-12-29T00:36:53.478Z,1027.08
2018-12-29T00:37:53.486Z,1027.07
2018-12-29T00:38:53.455Z,1027.08
2018-12-29T00:39:53.449Z,1027.13
2018-12-29T00:40:53.443Z,1027.13
2018-12-29T00:41:53.441Z,1027.13
2018-12-29T00:42:53.439Z,1027.12
2018-12-29T00:43:53.424Z,1027.10
2018-12-29T00:44:53.411Z,1027.12
2018-12-29T00:45:53.434Z,1027.15
2018-12-29T00:46:53.401Z,1027.10
2018-12-29T00:47:53.409Z,1027.14
2018-12-29T00:48:53.396Z,1027.14
2018-12-29T00:49:53.378Z,1027.14
2018-12-29T00:50:53.384Z,1027.11
2018-12-29T00:51:53.360Z,1027.20
2018-12-29T00:52:53.355Z,1027.18
2018-12-29T00:53:53.339Z,1027.16
2018-12-29T00:54:53.337Z,1027.18
2018-12-29T00:55:53.333Z,1027.23
2018-12-29T00:56:53.326Z,1027.20
2018-12-29T00:57:53.321Z,1027.23
2018-12-29T00:58:53.304Z,1027.26
2018-12-29T00:59:53.950Z,1027.22
2018-12-29T01:00:53.293Z,1027.22
2018-12-29T01:01:53.290Z,1027.24
2018-12-29T01:02:53.492Z,1027.25
2018-12-29T01:03:53.274Z,1027.28
2018-12-29T01:04:53.269Z,1027.27
2018-12-29T01:05:53.272Z,1027.28
2018-12-29T01:06:53.263Z,1027.32
2018-12-29T01:07:53.245Z,1027.32
2018-12-29T01:08:53.236Z,1027.30
2018-12-29T01:09:53.228Z,1027.29
2018-12-29T01:10:53.227Z,1027.27
2018-12-29T01:11:53.213Z,1027.26
2018-12-29T01:12:53.210Z,1027.28
2018-12-29T01:13:53.209Z,1027.29
2018-12-29T01:14:53.200Z,1027.29
2018-12-29T01:15:53.185Z,1027.29
2018-12-29T01:16:53.177Z,1027.30
2018-12-29T01:17:53.184Z,1027.25
2018-12-29T01:18:53.165Z,1027.20
2018-12-29T01:19:53.155Z,1027.21
2018-12-29T01:20:53.160Z,1027.20
2018-12-29T01:21:53.137Z,1027.24
2018-12-29T01:22:53.137Z,1027.19
2018-12-29T01:23:53.123Z,1027.23
2018-12-29T01:24:53.124Z,1027.22
2018-12-29T01:25:53.116Z,1027.20
2018-12-29T01:26:53.113Z,1027.17
2018-12-29T01:27:53.089Z,1027.16
2018-12-29T01:28:53.111Z,1027.12
2018-12-29T01:29:53.084Z,1027.14
2018-12-29T01:30:53.075Z,1027.15
2018-12-29T01:31:53.076Z,1027.19
2018-12-29T01:32:53.068Z,1027.18
2018-12-29T01:33:53.061Z,1027.18
2018-12-29T01:34:53.056Z,1027.15
2018-12-29T01:35:53.052Z,1027.12
2018-12-29T01:36:53.044Z,1027.15
2018-12-29T01:37:53.030Z,1027.13
2018-12-29T01:38:53.011Z,1027.15
2018-12-29T01:39:53.008Z,1027.10
2018-12-29T01:40:53.222Z,1027.10
2018-12-29T01:41:53.003Z,1027.16
2018-12-29T01:42:52.995Z,1027.10
2018-12-29T01:43:52.975Z,1027.10
2018-12-29T01:44:52.982Z,1027.15
2018-12-29T01:45:52.984Z,1027.16
2018-12-29T01:46:52.953Z,1027.20
2018-12-29T01:47:52.939Z,1027.23
2018-12-29T01:48:52.956Z,1027.17
2018-12-29T01:49:52.936Z,1027.22
2018-12-29T01:50:52.924Z,1027.26
2018-12-29T01:51:52.931Z,1027.23
2018-12-29T01:52:52.906Z,1027.22
2018-12-29T01:53:52.896Z,1027.23
2018-12-29T01:54:52.893Z,1027.20
2018-12-29T01:55:52.886Z,1027.21
2018-12-29T01:56:52.880Z,1027.19
2018-12-29T01:57:52.889Z,1027.20
2018-12-29T01:58:52.869Z,1027.20
2018-12-29T01:59:52.858Z,1027.22
2018-12-29T02:00:52.914Z,1027.20
2018-12-29T02:01:52.852Z,1027.20
2018-12-29T02:02:52.831Z,1027.17
2018-12-29T02:03:52.834Z,1027.19
2018-12-29T02:04:52.820Z,1027.18
2018-12-29T02:05:52.814Z,1027.17
2018-12-29T02:06:52.809Z,1027.13
2018-12-29T02:07:52.794Z,1027.16
2018-12-29T02:08:52.786Z,1027.15
2018-12-29T02:09:52.794Z,1027.18
2018-12-29T02:10:52.773Z,1027.16
2018-12-29T02:11:52.778Z,1027.16
2018-12-29T02:12:52.754Z,1027.17
2018-12-29T02:13:52.767Z,1027.21
2018-12-29T02:14:52.741Z,1027.21
2018-12-29T02:15:52.733Z,1027.22
2018-12-29T02:16:52.744Z,1027.29
2018-12-29T02:17:52.722Z,1027.26
2018-12-29T02:18:52.717Z,1027.24
2018-12-29T02:19:52.710Z,1027.24
2018-12-29T02:20:52.704Z,1027.23
2018-12-29T02:21:52.687Z,1027.23
2018-12-29T02:22:52.687Z,1027.24
2018-12-29T02:23:52.673Z,1027.24
2018-12-29T02:24:52.670Z,1027.27
2018-12-29T02:25:54.228Z,1027.21
2018-12-29T02:26:52.650Z,1027.21
2018-12-29T02:27:52.660Z,1027.17
2018-12-29T02:28:52.636Z,1027.19
2018-12-29T02:29:52.643Z,1027.18
2018-12-29T02:30:52.626Z,1027.20
2018-12-29T02:31:52.616Z,1027.21
2018-12-29T02:32:52.617Z,1027.23
2018-12-29T02:33:52.601Z,1027.23
2018-12-29T02:34:52.592Z,1027.19
2018-12-29T02:35:52.602Z,1027.23
2018-12-29T02:36:52.578Z,1027.26
2018-12-29T02:37:52.574Z,1027.26
2018-12-29T02:38:52.559Z,1027.22
2018-12-29T02:39:52.554Z,1027.20
2018-12-29T02:40:52.548Z,1027.21
2018-12-29T02:41:52.565Z,1027.16
2018-12-29T02:42:52.552Z,1027.14
2018-12-29T02:43:52.535Z,1027.15
2018-12-29T02:44:52.522Z,1027.14
2018-12-29T02:45:52.523Z,1027.17
2018-12-29T02:46:52.507Z,1027.12
2018-12-29T02:47:52.505Z,1027.16
2018-12-29T02:48:52.497Z,1027.20
2018-12-29T02:49:52.480Z,1027.17
2018-12-29T02:50:52.476Z,1027.22
2018-12-29T02:51:52.481Z,1027.25
2018-12-29T02:52:52.453Z,1027.27
2018-12-29T02:53:52.462Z,1027.27
2018-12-29T02:54:52.447Z,1027.27
2018-12-29T02:55:52.444Z,1027.19
2018-12-29T02:56:52.424Z,1027.17
2018-12-29T02:57:52.434Z,1027.18
2018-12-29T02:58:52.419Z,1027.19
2018-12-29T02:59:52.414Z,1027.20
2018-12-29T03:00:52.409Z,1027.22
2018-12-29T03:01:52.381Z,1027.21
2018-12-29T03:02:52.379Z,1027.26
2018-12-29T03:03:52.382Z,1027.28
2018-12-29T03:04:52.358Z,1027.29
2018-12-29T03:05:52.354Z,1027.31
2018-12-29T03:06:52.347Z,1027.33
2018-12-29T03:07:52.357Z,1027.31
2018-12-29T03:08:52.343Z,1027.21
2018-12-29T03:09:52.338Z,1027.25
2018-12-29T03:10:52.316Z,1027.26
2018-12-29T03:11:52.310Z,1027.26
2018-12-29T03:12:52.317Z,1027.21
2018-12-29T03:13:52.310Z,1027.27
2018-12-29T03:14:52.299Z,1027.34
2018-12-29T03:15:52.279Z,1027.35
2018-12-29T03:16:52.269Z,1027.33
2018-12-29T03:17:52.269Z,1027.34
2018-12-29T03:18:52.274Z,1027.33
2018-12-29T03:19:52.281Z,1027.33
2018-12-29T03:20:52.262Z,1027.31
2018-12-29T03:21:52.247Z,1027.35
2018-12-29T03:22:52.225Z,1027.33
2018-12-29T03:23:52.219Z,1027.35
2018-12-29T03:24:52.224Z,1027.34
2018-12-29T03:25:52.205Z,1027.33
2018-12-29T03:26:52.204Z,1027.35
2018-12-29T03:27:52.186Z,1027.35
2018-12-29T03:28:52.188Z,1027.38
2018-12-29T03:29:52.179Z,1027.31
2018-12-29T03:30:52.389Z,1027.30
2018-12-29T03:31:52.175Z,1027.29
2018-12-29T03:32:52.180Z,1027.30
2018-12-29T03:33:52.161Z,1027.28
2018-12-29T03:34:52.134Z,1027.25
2018-12-29T03:35:52.136Z,1027.25
2018-12-29T03:36:52.143Z,1027.27
2018-12-29T03:37:52.125Z,1027.22
2018-12-29T03:38:52.109Z,1027.25
2018-12-29T03:39:52.111Z,1027.27
2018-12-29T03:40:52.177Z,1027.24
2018-12-29T03:41:52.084Z,1027.25
2018-12-29T03:42:52.082Z,1027.20
2018-12-29T03:43:52.074Z,1027.19
2018-12-29T03:44:52.079Z,1027.15
2018-12-29T03:45:52.066Z,1027.19
2018-12-29T03:46:52.049Z,1027.19
2018-12-29T03:47:52.057Z,1027.15
2018-12-29T03:48:52.065Z,1027.14
2018-12-29T03:49:52.030Z,1027.18
2018-12-29T03:50:52.026Z,1027.19
2018-12-29T03:51:52.011Z,1027.16
2018-12-29T03:52:52.006Z,1027.18
2018-12-29T03:53:51.993Z,1027.16
2018-12-29T03:54:51.988Z,1027.17
2018-12-29T03:55:51.987Z,1027.18
2018-12-29T03:56:51.984Z,1027.14
2018-12-29T03:57:51.968Z,1027.06
2018-12-29T03:58:51.957Z,1027.06
2018-12-29T03:59:51.958Z,1027.02
2018-12-29T04:00:51.955Z,1027.05
2018-12-29T04:01:51.939Z,1027.02
2018-12-29T04:02:51.928Z,1026.99
2018-12-29T04:03:51.925Z,1027.00
2018-12-29T04:04:51.930Z,1027.05
2018-12-29T04:05:51.911Z,1027.05
2018-12-29T04:06:51.897Z,1027.06
2018-12-29T04:07:51.928Z,1027.10
2018-12-29T04:08:51.898Z,1027.08
2018-12-29T04:09:51.871Z,1027.05
2018-12-29T04:10:51.869Z,1027.09
2018-12-29T04:11:51.873Z,1027.08
2018-12-29T04:12:51.877Z,1027.08
2018-12-29T04:13:51.861Z,1027.08
2018-12-29T04:14:51.843Z,1027.08
2018-12-29T04:15:57.841Z,1027.10
2018-12-29T04:16:51.849Z,1027.05
2018-12-29T04:17:51.822Z,1027.05
2018-12-29T04:18:51.812Z,1026.98
2018-12-29T04:19:51.821Z,1027.01
2018-12-29T04:20:51.814Z,1027.02
2018-12-29T04:21:51.786Z,1027.00
2018-12-29T04:22:51.788Z,1026.99
2018-12-29T04:23:51.784Z,1027.02
2018-12-29T04:24:51.788Z,1026.97
2018-12-29T04:25:51.750Z,1026.98
2018-12-29T04:26:51.750Z,1026.96
2018-12-29T04:27:51.739Z,1026.89
2018-12-29T04:28:51.730Z,1026.86
2018-12-29T04:29:51.725Z,1026.91
2018-12-29T04:30:51.712Z,1026.93
2018-12-29T04:31:51.908Z,1026.92
2018-12-29T04:32:51.707Z,1026.95
2018-12-29T04:33:51.702Z,1026.91
2018-12-29T04:34:51.698Z,1026.83
2018-12-29T04:35:51.693Z,1026.83
2018-12-29T04:36:51.667Z,1026.85
2018-12-29T04:37:51.662Z,1026.86
2018-12-29T04:38:51.665Z,1026.84
2018-12-29T04:39:51.650Z,1026.84
2018-12-29T04:40:51.644Z,1026.85
2018-12-29T04:41:51.629Z,1026.82
2018-12-29T04:42:51.634Z,1026.83
2018-12-29T04:43:51.621Z,1026.73
2018-12-29T04:44:51.612Z,1026.74
2018-12-29T04:45:51.617Z,1026.70
2018-12-29T04:46:51.613Z,1026.72
2018-12-29T04:47:51.596Z,1026.71
2018-12-29T04:48:51.577Z,1026.75
2018-12-29T04:49:51.571Z,1026.76
2018-12-29T04:50:51.562Z,1026.78
2018-12-29T04:51:51.562Z,1026.76
2018-12-29T04:52:51.549Z,1026.72
2018-12-29T04:53:51.549Z,1026.73
2018-12-29T04:54:51.550Z,1026.71
2018-12-29T04:55:51.540Z,1026.72
2018-12-29T04:56:51.518Z,1026.70
2018-12-29T04:57:51.729Z,1026.70
2018-12-29T04:58:51.513Z,1026.67
2018-12-29T04:59:51.490Z,1026.68
2018-12-29T05:00:51.492Z,1026.69
2018-12-29T05:01:51.488Z,1026.67
2018-12-29T05:02:51.469Z,1026.65
2018-12-29T05:03:51.469Z,1026.66
2018-12-29T05:04:51.456Z,1026.66
2018-12-29T05:05:51.447Z,1026.67
2018-12-29T05:06:51.441Z,1026.66
2018-12-29T05:07:51.430Z,1026.69
2018-12-29T05:08:51.422Z,1026.65
2018-12-29T05:09:51.436Z,1026.68
2018-12-29T05:10:51.414Z,1026.66
2018-12-29T05:11:51.411Z,1026.65
2018-12-29T05:12:51.401Z,1026.65
2018-12-29T05:13:51.401Z,1026.59
2018-12-29T05:14:51.381Z,1026.62
2018-12-29T05:15:51.370Z,1026.63
2018-12-29T05:16:51.382Z,1026.61
2018-12-29T05:17:51.356Z,1026.62
2018-12-29T05:18:51.371Z,1026.64
2018-12-29T05:19:51.350Z,1026.66
2018-12-29T05:20:51.328Z,1026.61
2018-12-29T05:21:51.324Z,1026.64
2018-12-29T05:22:51.321Z,1026.68
2018-12-29T05:23:51.326Z,1026.68
2018-12-29T05:24:51.312Z,1026.72
2018-12-29T05:25:51.288Z,1026.72
2018-12-29T05:26:51.284Z,1026.73
2018-12-29T05:27:51.279Z,1026.74
2018-12-29T05:28:51.276Z,1026.71
2018-12-29T05:29:51.266Z,1026.71
2018-12-29T05:30:51.264Z,1026.74
2018-12-29T05:31:51.253Z,1026.75
2018-12-29T05:32:51.240Z,1026.77
2018-12-29T05:33:51.233Z,1026.76
2018-12-29T05:34:51.235Z,1026.75
2018-12-29T05:35:51.217Z,1026.76
2018-12-29T05:36:51.209Z,1026.75
2018-12-29T05:37:51.198Z,1026.78
2018-12-29T05:38:51.192Z,1026.78
2018-12-29T05:39:51.206Z,1026.77
2018-12-29T05:40:51.177Z,1026.83
2018-12-29T05:41:51.169Z,1026.80
2018-12-29T05:42:51.166Z,1026.85
2018-12-29T05:43:51.157Z,1026.88
2018-12-29T05:44:51.149Z,1026.87
2018-12-29T05:45:51.141Z,1026.91
2018-12-29T05:46:51.141Z,1026.97
2018-12-29T05:47:51.142Z,1026.93
2018-12-29T05:48:51.111Z,1026.98
2018-12-29T05:49:51.112Z,1027.00
2018-12-29T05:50:51.108Z,1026.99
2018-12-29T05:51:51.090Z,1027.03
2018-12-29T05:52:51.101Z,1027.04
2018-12-29T05:53:51.077Z,1027.07
2018-12-29T05:54:51.296Z,1027.10
2018-12-29T05:55:51.068Z,1027.07
2018-12-29T05:56:51.061Z,1027.08
2018-12-29T05:57:51.249Z,1027.09
2018-12-29T05:58:51.055Z,1027.11
2018-12-29T05:59:51.034Z,1027.08
2018-12-29T06:00:51.039Z,1027.09
2018-12-29T06:01:51.028Z,1027.11
2018-12-29T06:02:51.021Z,1027.16
2018-12-29T06:03:51.033Z,1027.13
2018-12-29T06:04:50.993Z,1027.20
2018-12-29T06:05:50.989Z,1027.21
2018-12-29T06:06:50.990Z,1027.25
2018-12-29T06:07:50.982Z,1027.26
2018-12-29T06:08:50.966Z,1027.26
2018-12-29T06:09:50.964Z,1027.31
2018-12-29T06:10:50.950Z,1027.30
2018-12-29T06:11:50.944Z,1027.27
2018-12-29T06:12:50.969Z,1027.27
2018-12-29T06:13:50.944Z,1027.25
2018-12-29T06:14:50.921Z,1027.28
2018-12-29T06:15:50.924Z,1027.28
2018-12-29T06:16:50.897Z,1027.25
2018-12-29T06:17:50.898Z,1027.33
2018-12-29T06:18:50.881Z,1027.32
2018-12-29T06:19:50.894Z,1027.33
2018-12-29T06:20:50.868Z,1027.28
2018-12-29T06:21:50.865Z,1027.23
2018-12-29T06:22:50.872Z,1027.30
2018-12-29T06:23:50.858Z,1027.30
2018-12-29T06:24:50.846Z,1027.32
2018-12-29T06:25:50.850Z,1027.32
2018-12-29T06:26:50.838Z,1027.35
2018-12-29T06:27:50.834Z,1027.36
2018-12-29T06:28:50.864Z,1027.36
2018-12-29T06:29:50.817Z,1027.34
2018-12-29T06:30:50.822Z,1027.31
2018-12-29T06:31:50.782Z,1027.37
2018-12-29T06:32:50.787Z,1027.35
2018-12-29T06:33:50.994Z,1027.38
2018-12-29T06:34:50.775Z,1027.35
2018-12-29T06:35:50.774Z,1027.33
2018-12-29T06:36:50.748Z,1027.35
2018-12-29T06:37:50.739Z,1027.33
2018-12-29T06:38:50.728Z,1027.34
2018-12-29T06:39:50.720Z,1027.33
2018-12-29T06:40:50.728Z,1027.33
2018-12-29T06:41:50.709Z,1027.33
2018-12-29T06:42:50.709Z,1027.36
2018-12-29T06:43:50.696Z,1027.38
2018-12-29T06:44:50.702Z,1027.36
2018-12-29T06:45:50.685Z,1027.37
2018-12-29T06:46:50.667Z,1027.40
2018-12-29T06:47:50.674Z,1027.41
2018-12-29T06:48:50.676Z,1027.40
2018-12-29T06:49:50.654Z,1027.35
2018-12-29T06:50:50.634Z,1027.37
2018-12-29T06:51:50.645Z,1027.29
2018-12-29T06:52:50.630Z,1027.31
2018-12-29T06:53:50.846Z,1027.31
2018-12-29T06:54:50.624Z,1027.33
2018-12-29T06:55:50.599Z,1027.32
2018-12-29T06:56:50.609Z,1027.34
2018-12-29T06:57:50.790Z,1027.37
2018-12-29T06:58:50.581Z,1027.38
2018-12-29T06:59:50.574Z,1027.40
2018-12-29T07:00:50.572Z,1027.39
2018-12-29T07:01:50.787Z,1027.45
2018-12-29T07:02:50.581Z,1027.48
2018-12-29T07:03:50.551Z,1027.42
2018-12-29T07:04:50.548Z,1027.38
2018-12-29T07:05:50.745Z,1027.40
2018-12-29T07:06:50.530Z,1027.41
2018-12-29T07:07:50.511Z,1027.40
2018-12-29T07:08:50.505Z,1027.40
2018-12-29T07:09:50.493Z,1027.40
2018-12-29T07:10:50.497Z,1027.45
2018-12-29T07:11:50.487Z,1027.44
2018-12-29T07:12:50.486Z,1027.39
2018-12-29T07:13:50.467Z,1027.39
2018-12-29T07:14:50.455Z,1027.39
2018-12-29T07:15:50.446Z,1027.41
2018-12-29T07:16:50.446Z,1027.40
2018-12-29T07:17:50.430Z,1027.47
2018-12-29T07:18:50.428Z,1027.47
2018-12-29T07:19:50.421Z,1027.47
2018-12-29T07:20:50.411Z,1027.54
2018-12-29T07:21:50.407Z,1027.58
2018-12-29T07:22:50.402Z,1027.56
2018-12-29T07:23:50.393Z,1027.58
2018-12-29T07:24:50.378Z,1027.56
2018-12-29T07:25:50.393Z,1027.55
2018-12-29T07:26:50.379Z,1027.54
2018-12-29T07:27:50.367Z,1027.51
2018-12-29T07:28:50.568Z,1027.49
2018-12-29T07:29:50.339Z,1027.49
2018-12-29T07:30:50.341Z,1027.49
2018-12-29T07:31:50.536Z,1027.55
2018-12-29T07:32:50.332Z,1027.51
2018-12-29T07:33:50.327Z,1027.48
2018-12-29T07:34:50.313Z,1027.46
2018-12-29T07:35:50.297Z,1027.43
2018-12-29T07:36:50.308Z,1027.46
2018-12-29T07:37:50.512Z,1027.43
2018-12-29T07:38:50.284Z,1027.46
2018-12-29T07:39:50.264Z,1027.46
2018-12-29T07:40:50.274Z,1027.54
2018-12-29T07:41:50.250Z,1027.52
2018-12-29T07:42:50.240Z,1027.50
2018-12-29T07:43:50.237Z,1027.50
2018-12-29T07:44:50.225Z,1027.51
2018-12-29T07:45:50.224Z,1027.52
2018-12-29T07:46:50.209Z,1027.50
2018-12-29T07:47:50.212Z,1027.49
2018-12-29T07:48:50.198Z,1027.50
2018-12-29T07:49:50.396Z,1027.49
2018-12-29T07:50:50.189Z,1027.50
2018-12-29T07:51:50.192Z,1027.50
2018-12-29T07:52:50.169Z,1027.47
2018-12-29T07:53:50.375Z,1027.49
2018-12-29T07:54:50.160Z,1027.49
2018-12-29T07:55:50.150Z,1027.47
2018-12-29T07:56:50.339Z,1027.49
2018-12-29T07:57:50.131Z,1027.49
2018-12-29T07:58:50.123Z,1027.49
2018-12-29T07:59:50.114Z,1027.52
2018-12-29T08:00:50.307Z,1027.48
2018-12-29T08:01:50.110Z,1027.49
2018-12-29T08:02:50.089Z,1027.49
2018-12-29T08:03:50.087Z,1027.51
2018-12-29T08:04:50.073Z,1027.49
2018-12-29T08:05:50.066Z,1027.50
2018-12-29T08:06:50.081Z,1027.50
2018-12-29T08:07:50.056Z,1027.52
2018-12-29T08:08:50.060Z,1027.54
2018-12-29T08:09:50.045Z,1027.49
2018-12-29T08:10:50.026Z,1027.48
2018-12-29T08:11:50.026Z,1027.51
2018-12-29T08:12:50.027Z,1027.49
2018-12-29T08:13:50.021Z,1027.52
2018-12-29T08:14:50.008Z,1027.49
2018-12-29T08:15:49.999Z,1027.50
2018-12-29T08:16:56.686Z,1027.42
2018-12-29T08:17:49.975Z,1027.40
2018-12-29T08:18:49.971Z,1027.38
2018-12-29T08:19:49.962Z,1027.38
2018-12-29T08:20:49.953Z,1027.41
2018-12-29T08:21:49.946Z,1027.41
2018-12-29T08:22:49.936Z,1027.40
2018-12-29T08:23:49.942Z,1027.40
2018-12-29T08:24:49.919Z,1027.39
2018-12-29T08:25:49.933Z,1027.40
2018-12-29T08:26:49.906Z,1027.39
2018-12-29T08:27:49.900Z,1027.43
2018-12-29T08:28:49.902Z,1027.42
2018-12-29T08:29:49.893Z,1027.41
2018-12-29T08:30:49.886Z,1027.43
2018-12-29T08:31:49.881Z,1027.41
2018-12-29T08:32:49.870Z,1027.47
2018-12-29T08:33:49.854Z,1027.42
2018-12-29T08:34:49.847Z,1027.45
2018-12-29T08:35:49.837Z,1027.45
2018-12-29T08:36:49.837Z,1027.39
2018-12-29T08:37:49.826Z,1027.38
2018-12-29T08:38:49.812Z,1027.40
2018-12-29T08:39:49.817Z,1027.40
2018-12-29T08:40:49.804Z,1027.39
2018-12-29T08:41:49.795Z,1027.36
2018-12-29T08:42:49.795Z,1027.36
2018-12-29T08:43:49.785Z,1027.37
2018-12-29T08:44:49.771Z,1027.32
2018-12-29T08:45:49.775Z,1027.34
2018-12-29T08:46:49.769Z,1027.34
2018-12-29T08:47:49.762Z,1027.33
2018-12-29T08:48:49.738Z,1027.35
2018-12-29T08:49:49.731Z,1027.36
2018-12-29T08:50:49.726Z,1027.32
2018-12-29T08:51:49.720Z,1027.34
2018-12-29T08:52:49.729Z,1027.31
2018-12-29T08:53:49.709Z,1027.30
2018-12-29T08:54:49.696Z,1027.30
2018-12-29T08:55:49.689Z,1027.31
2018-12-29T08:56:49.684Z,1027.37
2018-12-29T08:57:49.673Z,1027.37
2018-12-29T08:58:49.676Z,1027.36
2018-12-29T08:59:49.667Z,1027.35
2018-12-29T09:00:49.663Z,1027.32
2018-12-29T09:01:49.661Z,1027.35
2018-12-29T09:02:49.638Z,1027.35
2018-12-29T09:03:49.631Z,1027.30
2018-12-29T09:04:49.638Z,1027.28
2018-12-29T09:05:49.617Z,1027.27
2018-12-29T09:06:49.618Z,1027.31
2018-12-29T09:07:49.608Z,1027.23
2018-12-29T09:08:49.591Z,1027.27
2018-12-29T09:09:49.609Z,1027.32
2018-12-29T09:10:49.590Z,1027.34
2018-12-29T09:11:49.585Z,1027.33
2018-12-29T09:12:49.563Z,1027.33
2018-12-29T09:13:49.564Z,1027.30
2018-12-29T09:14:49.565Z,1027.30
2018-12-29T09:15:49.567Z,1027.25
2018-12-29T09:16:49.553Z,1027.22
2018-12-29T09:17:49.527Z,1027.19
2018-12-29T09:18:49.884Z,1027.19
2018-12-29T09:19:49.511Z,1027.19
2018-12-29T09:20:49.504Z,1027.19
2018-12-29T09:21:49.494Z,1027.21
2018-12-29T09:22:49.506Z,1027.18
2018-12-29T09:23:49.489Z,1027.16
2018-12-29T09:24:49.470Z,1027.12
2018-12-29T09:25:49.674Z,1027.11
2018-12-29T09:26:49.460Z,1027.12
2018-12-29T09:27:49.453Z,1027.17
2018-12-29T09:28:49.649Z,1027.15
2018-12-29T09:29:49.437Z,1027.18
2018-12-29T09:30:49.431Z,1027.28
2018-12-29T09:31:49.424Z,1027.26
2018-12-29T09:32:49.416Z,1027.26
2018-12-29T09:33:49.419Z,1027.28
2018-12-29T09:34:49.411Z,1027.28
2018-12-29T09:35:49.389Z,1027.22
2018-12-29T09:36:49.381Z,1027.26
2018-12-29T09:37:49.389Z,1027.21
2018-12-29T09:38:49.364Z,1027.16
2018-12-29T09:39:49.377Z,1027.15
2018-12-29T09:40:49.353Z,1027.15
2018-12-29T09:41:49.357Z,1027.14
2018-12-29T09:42:49.342Z,1027.15
2018-12-29T09:43:49.343Z,1027.18
2018-12-29T09:44:49.332Z,1027.20
2018-12-29T09:45:49.330Z,1027.14
2018-12-29T09:46:49.317Z,1027.15
2018-12-29T09:47:49.302Z,1027.12
2018-12-29T09:48:49.295Z,1027.08
2018-12-29T09:49:49.297Z,1027.07
2018-12-29T09:50:49.274Z,1027.09
2018-12-29T09:51:49.476Z,1027.07
2018-12-29T09:52:49.298Z,1027.06
2018-12-29T09:53:49.259Z,1027.02
2018-12-29T09:54:49.451Z,1026.95
2018-12-29T09:55:49.244Z,1026.91
2018-12-29T09:56:49.240Z,1026.91
2018-12-29T09:57:49.225Z,1026.91
2018-12-29T09:58:49.219Z,1026.87
2018-12-29T09:59:49.413Z,1026.80
2018-12-29T10:00:49.210Z,1026.80
2018-12-29T10:01:49.216Z,1026.78
2018-12-29T10:02:49.207Z,1026.75
2018-12-29T10:03:49.186Z,1026.69
2018-12-29T10:04:49.179Z,1026.68
2018-12-29T10:05:49.179Z,1026.62
2018-12-29T10:06:49.383Z,1026.65
2018-12-29T10:07:49.149Z,1026.66
2018-12-29T10:08:49.148Z,1026.65
2018-12-29T10:09:49.136Z,1026.61
2018-12-29T10:10:49.146Z,1026.66
2018-12-29T10:11:49.142Z,1026.62
2018-12-29T10:12:49.133Z,1026.62
2018-12-29T10:13:49.111Z,1026.53
2018-12-29T10:14:49.102Z,1026.52
2018-12-29T10:15:49.099Z,1026.47
2018-12-29T10:16:49.098Z,1026.41
2018-12-29T10:17:49.080Z,1026.42
2018-12-29T10:18:49.070Z,1026.36
2018-12-29T10:19:49.078Z,1026.37
2018-12-29T10:20:49.060Z,1026.35
2018-12-29T10:21:49.047Z,1026.40
2018-12-29T10:22:49.045Z,1026.34
2018-12-29T10:23:49.050Z,1026.31
2018-12-29T10:24:49.247Z,1026.23
2018-12-29T10:25:49.045Z,1026.24
2018-12-29T10:26:49.010Z,1026.19
2018-12-29T10:27:49.010Z,1026.15
2018-12-29T10:28:49.002Z,1026.14
2018-12-29T10:29:48.993Z,1026.11
2018-12-29T10:30:48.990Z,1026.15
2018-12-29T10:31:48.983Z,1026.08
2018-12-29T10:32:49.181Z,1026.10
2018-12-29T10:33:48.983Z,1026.10
2018-12-29T10:34:48.952Z,1026.11
2018-12-29T10:35:48.950Z,1026.08
2018-12-29T10:36:48.952Z,1026.09
2018-12-29T10:37:48.928Z,1026.08
2018-12-29T10:38:48.938Z,1026.10
2018-12-29T10:39:48.919Z,1026.10
2018-12-29T10:40:48.910Z,1026.11
2018-12-29T10:41:48.923Z,1026.03
2018-12-29T10:42:48.904Z,1026.06
2018-12-29T10:43:48.895Z,1026.15
2018-12-29T10:44:48.898Z,1026.09
2018-12-29T10:45:48.875Z,1026.02
2018-12-29T10:46:48.863Z,1026.02
2018-12-29T10:47:48.866Z,1026.04
2018-12-29T10:48:48.848Z,1026.06
2018-12-29T10:49:48.842Z,1026.04
2018-12-29T10:50:48.832Z,1026.00
2018-12-29T10:51:48.823Z,1025.99
2018-12-29T10:52:48.821Z,1025.98
2018-12-29T10:53:48.811Z,1026.06
2018-12-29T10:54:48.812Z,1026.08
2018-12-29T10:55:48.801Z,1026.07
2018-12-29T10:56:48.803Z,1026.14
2018-12-29T10:57:48.796Z,1026.21
2018-12-29T10:58:48.778Z,1026.13
2018-12-29T10:59:48.766Z,1026.12
2018-12-29T11:00:48.765Z,1026.15
2018-12-29T11:01:48.756Z,1026.15
2018-12-29T11:02:48.783Z,1026.12
2018-12-29T11:03:48.757Z,1026.11
2018-12-29T11:04:48.753Z,1026.05
2018-12-29T11:05:48.738Z,1026.06
2018-12-29T11:06:48.729Z,1026.06
2018-12-29T11:07:48.734Z,1026.03
2018-12-29T11:08:48.714Z,1026.04
2018-12-29T11:09:48.695Z,1026.03
2018-12-29T11:10:48.704Z,1025.99
2018-12-29T11:11:48.693Z,1025.95
2018-12-29T11:12:48.700Z,1025.96
2018-12-29T11:13:48.684Z,1025.95
2018-12-29T11:14:48.668Z,1025.90
2018-12-29T11:15:48.659Z,1025.87
2018-12-29T11:16:48.678Z,1025.83
2018-12-29T11:17:48.657Z,1025.76
2018-12-29T11:18:48.632Z,1025.67
2018-12-29T11:19:48.629Z,1025.60
2018-12-29T11:20:48.638Z,1025.57
2018-12-29T11:21:48.626Z,1025.56
2018-12-29T11:22:48.622Z,1025.50
2018-12-29T11:23:48.614Z,1025.46
2018-12-29T11:24:48.618Z,1025.42
2018-12-29T11:25:48.604Z,1025.42
2018-12-29T11:26:48.582Z,1025.37
2018-12-29T11:27:48.573Z,1025.32
2018-12-29T11:28:48.780Z,1025.25
2018-12-29T11:29:48.558Z,1025.27
2018-12-29T11:30:48.751Z,1025.27
2018-12-29T11:31:48.756Z,1025.32
2018-12-29T11:32:48.534Z,1025.33
2018-12-29T11:33:48.536Z,1025.30
2018-12-29T11:34:48.520Z,1025.31
2018-12-29T11:35:48.516Z,1025.28
2018-12-29T11:36:48.511Z,1025.29
2018-12-29T11:37:48.504Z,1025.28
2018-12-29T11:38:48.490Z,1025.33
2018-12-29T11:39:48.496Z,1025.36
2018-12-29T11:40:48.488Z,1025.45
2018-12-29T11:41:48.476Z,1025.45
2018-12-29T11:42:48.477Z,1025.43
2018-12-29T11:43:48.501Z,1025.44
2018-12-29T11:44:48.455Z,1025.43
2018-12-29T11:45:48.442Z,1025.41
2018-12-29T11:46:48.459Z,1025.38
2018-12-29T11:47:50.000Z,1025.43
2018-12-29T11:48:48.456Z,1025.42
2018-12-29T11:49:48.415Z,1025.52
2018-12-29T11:50:48.436Z,1025.53
2018-12-29T11:51:48.401Z,1025.56
2018-12-29T11:52:48.593Z,1025.51
2018-12-29T11:53:48.391Z,1025.46
2018-12-29T11:54:48.393Z,1025.36
2018-12-29T11:55:48.388Z,1025.29
2018-12-29T11:56:48.364Z,1025.30
2018-12-29T11:57:48.362Z,1025.27
2018-12-29T11:58:48.362Z,1025.34
2018-12-29T11:59:48.362Z,1025.43
2018-12-29T12:00:48.562Z,1025.42
2018-12-29T12:01:48.358Z,1025.41
2018-12-29T12:02:48.355Z,1025.33
2018-12-29T12:03:48.334Z,1025.28
2018-12-29T12:04:48.330Z,1025.22
2018-12-29T12:05:48.315Z,1025.25